sensor_id;sensor_type;location;lat;lon;timestamp;temperature;humidity
12568;DHT22;6349;50.904;6.136;2023-07-13T00:01:46;18.20;99.90
12568;DHT22;6349;50.904;6.136;2023-07-13T00:03:49;18.10;99.90
12568;DHT22;6349;50.904;6.136;2023-07-13T00:06:00;18.10;99.90
12568;DHT22;6349;50.904;6.136;2023-07-13T00:08:01;18.10;99.90
12568;DHT22;6349;50.904;6.136;2023-07-13T00:10:03;18.10;99.90
12568;DHT22;6349;50.904;6.136;2023-07-13T00:12:04;18.10;99.90
12568;DHT22;6349;50.904;6.136;2023-07-13T00:14:07;18.10;99.90
12568;DHT22;6349;50.904;6.136;2023-07-13T00:16:08;18.10;99.90
12568;DHT22;6349;50.904;6.136;2023-07-13T00:18:09;18.10;99.90
12568;DHT22;6349;50.904;6.136;2023-07-13T00:20:10;18.10;99.90
12568;DHT22;6349;50.904;6.136;2023-07-13T00:22:11;18.00;99.90
12568;DHT22;6349;50.904;6.136;2023-07-13T00:24:14;18.00;99.90
12568;DHT22;6349;50.904;6.136;2023-07-13T00:26:15;18.00;99.90
12568;DHT22;6349;50.904;6.136;2023-07-13T00:28:17;17.90;99.90
12568;DHT22;6349;50.904;6.136;2023-07-13T00:30:18;17.90;99.90
12568;DHT22;6349;50.904;6.136;2023-07-13T00:32:19;17.90;99.90
12568;DHT22;6349;50.904;6.136;2023-07-13T00:34:19;17.90;99.90
12568;DHT22;6349;50.904;6.136;2023-07-13T00:36:20;17.90;99.90
12568;DHT22;6349;50.904;6.136;2023-07-13T00:38:21;17.80;99.90
12568;DHT22;6349;50.904;6.136;2023-07-13T00:40:22;17.80;99.90
12568;DHT22;6349;50.904;6.136;2023-07-13T00:42:23;17.80;99.90
12568;DHT22;6349;50.904;6.136;2023-07-13T00:44:23;17.80;99.90
12568;DHT22;6349;50.904;6.136;2023-07-13T00:46:30;17.80;99.90
12568;DHT22;6349;50.904;6.136;2023-07-13T00:48:34;17.80;99.90
12568;DHT22;6349;50.904;6.136;2023-07-13T00:50:36;17.80;99.90
12568;DHT22;6349;50.904;6.136;2023-07-13T00:52:40;17.80;99.90
12568;DHT22;6349;50.904;6.136;2023-07-13T00:54:44;17.80;99.90
12568;DHT22;6349;50.904;6.136;2023-07-13T00:56:47;17.70;99.90
12568;DHT22;6349;50.904;6.136;2023-07-13T00:58:49;17.70;99.90
12568;DHT22;6349;50.904;6.136;2023-07-13T01:00:51;17.70;99.90
12568;DHT22;6349;50.904;6.136;2023-07-13T01:02:51;17.70;99.90
12568;DHT22;6349;50.904;6.136;2023-07-13T01:04:52;17.70;99.90
12568;DHT22;6349;50.904;6.136;2023-07-13T01:06:53;17.60;99.90
12568;DHT22;6349;50.904;6.136;2023-07-13T01:08:54;17.60;99.90
12568;DHT22;6349;50.904;6.136;2023-07-13T01:10:57;17.60;99.90
12568;DHT22;6349;50.904;6.136;2023-07-13T01:12:58;17.60;99.90
12568;DHT22;6349;50.904;6.136;2023-07-13T01:15:00;17.60;99.90
12568;DHT22;6349;50.904;6.136;2023-07-13T01:17:01;17.60;99.90
12568;DHT22;6349;50.904;6.136;2023-07-13T01:21:19;17.60;99.90
12568;DHT22;6349;50.904;6.136;2023-07-13T01:23:21;17.50;99.90
12568;DHT22;6349;50.904;6.136;2023-07-13T01:25:21;17.40;99.90
12568;DHT22;6349;50.904;6.136;2023-07-13T01:27:25;17.40;99.90
12568;DHT22;6349;50.904;6.136;2023-07-13T01:29:26;17.20;99.90
12568;DHT22;6349;50.904;6.136;2023-07-13T01:31:26;17.20;99.90
12568;DHT22;6349;50.904;6.136;2023-07-13T01:33:27;17.10;99.90
12568;DHT22;6349;50.904;6.136;2023-07-13T01:35:27;17.00;99.90
12568;DHT22;6349;50.904;6.136;2023-07-13T01:37:28;17.00;99.90
12568;DHT22;6349;50.904;6.136;2023-07-13T01:39:33;17.00;99.90
12568;DHT22;6349;50.904;6.136;2023-07-13T01:41:34;16.90;99.90
12568;DHT22;6349;50.904;6.136;2023-07-13T01:43:34;16.90;99.90
12568;DHT22;6349;50.904;6.136;2023-07-13T01:45:35;17.00;99.90
12568;DHT22;6349;50.904;6.136;2023-07-13T01:47:36;17.00;99.90
12568;DHT22;6349;50.904;6.136;2023-07-13T01:49:36;17.10;99.90
12568;DHT22;6349;50.904;6.136;2023-07-13T01:51:38;17.10;99.90
12568;DHT22;6349;50.904;6.136;2023-07-13T01:53:38;17.10;99.90
12568;DHT22;6349;50.904;6.136;2023-07-13T01:55:39;17.10;99.90
12568;DHT22;6349;50.904;6.136;2023-07-13T01:57:40;17.10;99.90
12568;DHT22;6349;50.904;6.136;2023-07-13T01:59:40;17.00;99.90
12568;DHT22;6349;50.904;6.136;2023-07-13T02:01:41;16.90;99.90
12568;DHT22;6349;50.904;6.136;2023-07-13T02:03:41;16.80;99.90
12568;DHT22;6349;50.904;6.136;2023-07-13T02:05:42;16.80;99.90
12568;DHT22;6349;50.904;6.136;2023-07-13T02:07:43;16.80;99.90
12568;DHT22;6349;50.904;6.136;2023-07-13T02:09:44;16.90;99.90
12568;DHT22;6349;50.904;6.136;2023-07-13T02:11:44;16.80;99.90
12568;DHT22;6349;50.904;6.136;2023-07-13T02:13:45;16.80;99.90
12568;DHT22;6349;50.904;6.136;2023-07-13T02:15:45;16.70;99.90
12568;DHT22;6349;50.904;6.136;2023-07-13T02:17:46;16.60;99.90
12568;DHT22;6349;50.904;6.136;2023-07-13T02:19:47;16.60;99.90
12568;DHT22;6349;50.904;6.136;2023-07-13T02:21:47;16.60;99.90
12568;DHT22;6349;50.904;6.136;2023-07-13T02:23:49;16.60;99.90
12568;DHT22;6349;50.904;6.136;2023-07-13T02:25:55;16.70;99.90
12568;DHT22;6349;50.904;6.136;2023-07-13T02:27:56;16.50;99.90
12568;DHT22;6349;50.904;6.136;2023-07-13T02:29:57;16.60;99.90
12568;DHT22;6349;50.904;6.136;2023-07-13T02:31:57;16.70;99.90
12568;DHT22;6349;50.904;6.136;2023-07-13T02:33:58;16.70;99.90
12568;DHT22;6349;50.904;6.136;2023-07-13T02:35:58;16.70;99.90
12568;DHT22;6349;50.904;6.136;2023-07-13T02:37:59;16.70;99.90
12568;DHT22;6349;50.904;6.136;2023-07-13T02:39:59;16.70;99.90
12568;DHT22;6349;50.904;6.136;2023-07-13T02:42:00;16.70;99.90
12568;DHT22;6349;50.904;6.136;2023-07-13T02:44:02;16.70;99.90
12568;DHT22;6349;50.904;6.136;2023-07-13T02:46:04;16.70;99.90
12568;DHT22;6349;50.904;6.136;2023-07-13T02:48:07;16.70;99.90
12568;DHT22;6349;50.904;6.136;2023-07-13T02:50:08;16.70;99.90
12568;DHT22;6349;50.904;6.136;2023-07-13T02:52:08;16.70;99.90
12568;DHT22;6349;50.904;6.136;2023-07-13T02:54:10;16.60;99.90
12568;DHT22;6349;50.904;6.136;2023-07-13T02:56:12;16.60;99.90
12568;DHT22;6349;50.904;6.136;2023-07-13T02:58:13;16.60;99.90
12568;DHT22;6349;50.904;6.136;2023-07-13T03:00:17;16.60;99.90
12568;DHT22;6349;50.904;6.136;2023-07-13T03:02:17;16.50;99.90
12568;DHT22;6349;50.904;6.136;2023-07-13T03:04:18;16.50;99.90
12568;DHT22;6349;50.904;6.136;2023-07-13T03:06:20;16.40;99.90
12568;DHT22;6349;50.904;6.136;2023-07-13T03:08:21;16.40;99.90
12568;DHT22;6349;50.904;6.136;2023-07-13T03:10:22;16.30;99.90
12568;DHT22;6349;50.904;6.136;2023-07-13T03:12:23;16.20;99.90
12568;DHT22;6349;50.904;6.136;2023-07-13T03:14:24;16.20;99.90
12568;DHT22;6349;50.904;6.136;2023-07-13T03:16:24;16.10;99.90
12568;DHT22;6349;50.904;6.136;2023-07-13T03:18:27;16.20;99.90
12568;DHT22;6349;50.904;6.136;2023-07-13T03:20:28;16.20;99.90
12568;DHT22;6349;50.904;6.136;2023-07-13T03:22:28;16.10;99.90
12568;DHT22;6349;50.904;6.136;2023-07-13T03:24:29;16.20;99.90
12568;DHT22;6349;50.904;6.136;2023-07-13T03:26:29;16.20;99.90
12568;DHT22;6349;50.904;6.136;2023-07-13T03:28:30;16.10;99.90
12568;DHT22;6349;50.904;6.136;2023-07-13T03:30:31;16.20;99.90
12568;DHT22;6349;50.904;6.136;2023-07-13T03:32:32;16.10;99.90
12568;DHT22;6349;50.904;6.136;2023-07-13T03:34:32;16.20;99.90
12568;DHT22;6349;50.904;6.136;2023-07-13T03:36:33;16.20;99.90
12568;DHT22;6349;50.904;6.136;2023-07-13T03:38:34;16.20;99.90
12568;DHT22;6349;50.904;6.136;2023-07-13T03:40:34;16.20;99.90
12568;DHT22;6349;50.904;6.136;2023-07-13T03:42:35;16.30;99.90
12568;DHT22;6349;50.904;6.136;2023-07-13T03:44:35;16.20;99.90
12568;DHT22;6349;50.904;6.136;2023-07-13T03:46:36;16.20;99.90
12568;DHT22;6349;50.904;6.136;2023-07-13T03:48:37;16.20;99.90
12568;DHT22;6349;50.904;6.136;2023-07-13T03:50:40;16.20;99.90
12568;DHT22;6349;50.904;6.136;2023-07-13T03:52:41;16.10;99.90
12568;DHT22;6349;50.904;6.136;2023-07-13T03:54:41;16.20;99.90
12568;DHT22;6349;50.904;6.136;2023-07-13T03:56:42;16.20;99.90
12568;DHT22;6349;50.904;6.136;2023-07-13T03:58:44;16.20;99.90
12568;DHT22;6349;50.904;6.136;2023-07-13T04:00:46;16.20;99.90
12568;DHT22;6349;50.904;6.136;2023-07-13T04:02:47;16.20;99.90
12568;DHT22;6349;50.904;6.136;2023-07-13T04:04:49;16.10;99.90
12568;DHT22;6349;50.904;6.136;2023-07-13T04:06:50;16.00;99.90
12568;DHT22;6349;50.904;6.136;2023-07-13T04:08:55;15.90;99.90
12568;DHT22;6349;50.904;6.136;2023-07-13T04:10:56;16.00;99.90
12568;DHT22;6349;50.904;6.136;2023-07-13T04:12:57;16.00;99.90
12568;DHT22;6349;50.904;6.136;2023-07-13T04:14:57;16.00;99.90
12568;DHT22;6349;50.904;6.136;2023-07-13T04:16:58;15.90;99.90
12568;DHT22;6349;50.904;6.136;2023-07-13T04:18:59;16.10;99.90
12568;DHT22;6349;50.904;6.136;2023-07-13T04:21:00;16.10;99.90
12568;DHT22;6349;50.904;6.136;2023-07-13T04:23:00;16.10;99.90
12568;DHT22;6349;50.904;6.136;2023-07-13T04:25:01;16.10;99.90
12568;DHT22;6349;50.904;6.136;2023-07-13T04:27:02;16.20;99.90
12568;DHT22;6349;50.904;6.136;2023-07-13T04:29:03;16.20;99.90
12568;DHT22;6349;50.904;6.136;2023-07-13T04:31:04;16.20;99.90
12568;DHT22;6349;50.904;6.136;2023-07-13T04:33:05;16.20;99.90
12568;DHT22;6349;50.904;6.136;2023-07-13T04:35:05;16.20;99.90
12568;DHT22;6349;50.904;6.136;2023-07-13T04:37:06;16.20;99.90
12568;DHT22;6349;50.904;6.136;2023-07-13T04:39:07;16.20;99.90
12568;DHT22;6349;50.904;6.136;2023-07-13T04:41:09;16.20;99.90
12568;DHT22;6349;50.904;6.136;2023-07-13T04:43:10;16.20;99.90
12568;DHT22;6349;50.904;6.136;2023-07-13T04:45:12;16.20;99.90
12568;DHT22;6349;50.904;6.136;2023-07-13T04:47:13;16.20;99.90
12568;DHT22;6349;50.904;6.136;2023-07-13T04:49:13;16.20;99.90
12568;DHT22;6349;50.904;6.136;2023-07-13T04:51:14;16.30;99.90
12568;DHT22;6349;50.904;6.136;2023-07-13T04:53:15;16.30;99.90
12568;DHT22;6349;50.904;6.136;2023-07-13T04:55:16;16.40;99.90
12568;DHT22;6349;50.904;6.136;2023-07-13T04:57:16;16.40;99.90
12568;DHT22;6349;50.904;6.136;2023-07-13T04:59:17;16.40;99.90
12568;DHT22;6349;50.904;6.136;2023-07-13T05:01:17;16.40;99.90
12568;DHT22;6349;50.904;6.136;2023-07-13T05:03:18;16.40;99.90
12568;DHT22;6349;50.904;6.136;2023-07-13T05:05:19;16.40;99.90
12568;DHT22;6349;50.904;6.136;2023-07-13T05:07:19;16.50;99.90
12568;DHT22;6349;50.904;6.136;2023-07-13T05:09:20;16.40;99.90
12568;DHT22;6349;50.904;6.136;2023-07-13T05:11:20;16.50;99.90
12568;DHT22;6349;50.904;6.136;2023-07-13T05:13:22;16.50;99.90
12568;DHT22;6349;50.904;6.136;2023-07-13T05:15:23;16.50;99.90
12568;DHT22;6349;50.904;6.136;2023-07-13T05:17:25;16.60;99.90
12568;DHT22;6349;50.904;6.136;2023-07-13T05:19:26;16.60;99.90
12568;DHT22;6349;50.904;6.136;2023-07-13T05:21:27;16.50;99.90
12568;DHT22;6349;50.904;6.136;2023-07-13T05:23:27;16.50;99.90
12568;DHT22;6349;50.904;6.136;2023-07-13T05:25:28;16.50;99.90
12568;DHT22;6349;50.904;6.136;2023-07-13T05:27:28;16.60;99.90
12568;DHT22;6349;50.904;6.136;2023-07-13T05:29:29;16.60;99.90
12568;DHT22;6349;50.904;6.136;2023-07-13T05:31:30;16.60;99.90
12568;DHT22;6349;50.904;6.136;2023-07-13T05:33:30;16.70;99.90
12568;DHT22;6349;50.904;6.136;2023-07-13T05:35:31;16.70;99.90
12568;DHT22;6349;50.904;6.136;2023-07-13T05:37:31;16.70;99.90
12568;DHT22;6349;50.904;6.136;2023-07-13T05:39:32;16.70;99.90
12568;DHT22;6349;50.904;6.136;2023-07-13T05:41:32;16.70;99.90
12568;DHT22;6349;50.904;6.136;2023-07-13T05:43:34;16.80;99.90
12568;DHT22;6349;50.904;6.136;2023-07-13T05:45:34;16.70;99.90
12568;DHT22;6349;50.904;6.136;2023-07-13T05:47:35;16.70;99.90
12568;DHT22;6349;50.904;6.136;2023-07-13T05:49:35;16.70;99.90
12568;DHT22;6349;50.904;6.136;2023-07-13T05:51:36;16.80;99.90
12568;DHT22;6349;50.904;6.136;2023-07-13T05:53:37;16.80;99.90
12568;DHT22;6349;50.904;6.136;2023-07-13T05:55:45;16.80;99.90
12568;DHT22;6349;50.904;6.136;2023-07-13T05:57:50;16.90;99.90
12568;DHT22;6349;50.904;6.136;2023-07-13T05:59:51;17.00;99.90
12568;DHT22;6349;50.904;6.136;2023-07-13T06:01:52;17.10;99.90
12568;DHT22;6349;50.904;6.136;2023-07-13T06:03:52;17.20;99.90
12568;DHT22;6349;50.904;6.136;2023-07-13T06:05:53;17.20;99.90
12568;DHT22;6349;50.904;6.136;2023-07-13T06:07:53;17.20;99.90
12568;DHT22;6349;50.904;6.136;2023-07-13T06:09:54;17.30;99.90
12568;DHT22;6349;50.904;6.136;2023-07-13T06:11:54;17.30;99.90
12568;DHT22;6349;50.904;6.136;2023-07-13T06:13:55;17.40;99.90
12568;DHT22;6349;50.904;6.136;2023-07-13T06:15:56;17.40;99.90
12568;DHT22;6349;50.904;6.136;2023-07-13T06:17:57;17.40;99.90
12568;DHT22;6349;50.904;6.136;2023-07-13T06:19:57;17.50;99.90
12568;DHT22;6349;50.904;6.136;2023-07-13T06:21:58;17.50;99.90
12568;DHT22;6349;50.904;6.136;2023-07-13T06:23:58;17.40;99.90
12568;DHT22;6349;50.904;6.136;2023-07-13T06:25:59;17.40;99.90
12568;DHT22;6349;50.904;6.136;2023-07-13T06:28:00;17.30;99.90
12568;DHT22;6349;50.904;6.136;2023-07-13T06:30:01;17.30;99.90
12568;DHT22;6349;50.904;6.136;2023-07-13T06:32:01;17.20;99.90
12568;DHT22;6349;50.904;6.136;2023-07-13T06:34:02;17.20;99.90
12568;DHT22;6349;50.904;6.136;2023-07-13T06:36:04;17.20;99.90
12568;DHT22;6349;50.904;6.136;2023-07-13T06:38:05;17.20;99.90
12568;DHT22;6349;50.904;6.136;2023-07-13T06:40:07;17.20;99.90
12568;DHT22;6349;50.904;6.136;2023-07-13T06:42:07;17.30;99.90
12568;DHT22;6349;50.904;6.136;2023-07-13T06:44:08;17.40;99.90
12568;DHT22;6349;50.904;6.136;2023-07-13T06:46:09;17.40;99.90
12568;DHT22;6349;50.904;6.136;2023-07-13T06:48:10;17.40;99.90
12568;DHT22;6349;50.904;6.136;2023-07-13T06:50:11;17.50;99.90
12568;DHT22;6349;50.904;6.136;2023-07-13T06:52:11;17.40;99.90
12568;DHT22;6349;50.904;6.136;2023-07-13T06:54:13;17.50;99.90
12568;DHT22;6349;50.904;6.136;2023-07-13T06:56:14;17.50;99.90
12568;DHT22;6349;50.904;6.136;2023-07-13T06:58:16;17.50;99.90
12568;DHT22;6349;50.904;6.136;2023-07-13T07:00:17;17.50;99.90
12568;DHT22;6349;50.904;6.136;2023-07-13T07:02:18;17.60;99.90
12568;DHT22;6349;50.904;6.136;2023-07-13T07:04:18;17.60;99.90
12568;DHT22;6349;50.904;6.136;2023-07-13T07:06:21;17.60;99.90
12568;DHT22;6349;50.904;6.136;2023-07-13T07:08:23;17.70;99.90
12568;DHT22;6349;50.904;6.136;2023-07-13T07:10:24;17.70;99.90
12568;DHT22;6349;50.904;6.136;2023-07-13T07:12:25;17.80;99.90
12568;DHT22;6349;50.904;6.136;2023-07-13T07:14:26;17.70;99.90
12568;DHT22;6349;50.904;6.136;2023-07-13T07:16:26;17.80;99.90
12568;DHT22;6349;50.904;6.136;2023-07-13T07:18:27;17.80;99.90
12568;DHT22;6349;50.904;6.136;2023-07-13T07:20:27;17.90;99.90
12568;DHT22;6349;50.904;6.136;2023-07-13T07:22:28;17.90;99.90
12568;DHT22;6349;50.904;6.136;2023-07-13T07:24:29;18.00;99.90
12568;DHT22;6349;50.904;6.136;2023-07-13T07:26:29;18.00;99.90
12568;DHT22;6349;50.904;6.136;2023-07-13T07:28:30;17.90;99.90
12568;DHT22;6349;50.904;6.136;2023-07-13T07:30:31;18.00;99.90
12568;DHT22;6349;50.904;6.136;2023-07-13T07:32:32;18.00;99.90
12568;DHT22;6349;50.904;6.136;2023-07-13T07:34:33;18.10;99.90
12568;DHT22;6349;50.904;6.136;2023-07-13T07:36:34;18.20;99.90
12568;DHT22;6349;50.904;6.136;2023-07-13T07:38:35;18.20;99.90
12568;DHT22;6349;50.904;6.136;2023-07-13T07:40:39;18.30;99.90
12568;DHT22;6349;50.904;6.136;2023-07-13T07:42:40;18.40;99.90
12568;DHT22;6349;50.904;6.136;2023-07-13T07:44:41;18.40;99.90
12568;DHT22;6349;50.904;6.136;2023-07-13T07:46:42;18.60;99.90
12568;DHT22;6349;50.904;6.136;2023-07-13T07:48:42;18.50;99.90
12568;DHT22;6349;50.904;6.136;2023-07-13T07:50:43;18.50;99.90
12568;DHT22;6349;50.904;6.136;2023-07-13T07:52:43;18.40;99.90
12568;DHT22;6349;50.904;6.136;2023-07-13T07:54:44;18.50;99.90
12568;DHT22;6349;50.904;6.136;2023-07-13T07:56:45;18.50;99.90
12568;DHT22;6349;50.904;6.136;2023-07-13T07:58:45;18.50;99.90
12568;DHT22;6349;50.904;6.136;2023-07-13T08:00:46;18.50;99.90
12568;DHT22;6349;50.904;6.136;2023-07-13T08:02:47;18.60;99.90
12568;DHT22;6349;50.904;6.136;2023-07-13T08:04:48;18.70;99.90
12568;DHT22;6349;50.904;6.136;2023-07-13T08:06:49;18.70;99.90
12568;DHT22;6349;50.904;6.136;2023-07-13T08:08:49;18.80;99.90
12568;DHT22;6349;50.904;6.136;2023-07-13T08:10:50;18.70;99.90
12568;DHT22;6349;50.904;6.136;2023-07-13T08:12:51;18.90;99.90
12568;DHT22;6349;50.904;6.136;2023-07-13T08:14:52;18.90;99.90
12568;DHT22;6349;50.904;6.136;2023-07-13T08:16:58;18.90;99.90
12568;DHT22;6349;50.904;6.136;2023-07-13T08:18:58;19.00;99.90
12568;DHT22;6349;50.904;6.136;2023-07-13T08:21:06;18.90;99.90
12568;DHT22;6349;50.904;6.136;2023-07-13T08:23:09;19.00;99.90
12568;DHT22;6349;50.904;6.136;2023-07-13T08:25:10;19.00;99.90
12568;DHT22;6349;50.904;6.136;2023-07-13T08:27:11;19.10;99.90
12568;DHT22;6349;50.904;6.136;2023-07-13T08:29:12;19.10;99.90
12568;DHT22;6349;50.904;6.136;2023-07-13T08:31:12;19.20;99.90
12568;DHT22;6349;50.904;6.136;2023-07-13T08:33:20;19.20;99.90
12568;DHT22;6349;50.904;6.136;2023-07-13T08:35:21;19.30;99.90
12568;DHT22;6349;50.904;6.136;2023-07-13T08:37:22;19.40;99.90
12568;DHT22;6349;50.904;6.136;2023-07-13T08:39:23;19.40;99.90
12568;DHT22;6349;50.904;6.136;2023-07-13T08:41:24;19.50;99.90
12568;DHT22;6349;50.904;6.136;2023-07-13T08:43:35;19.70;99.90
12568;DHT22;6349;50.904;6.136;2023-07-13T08:48:11;19.90;99.90
12568;DHT22;6349;50.904;6.136;2023-07-13T08:50:17;19.80;99.90
12568;DHT22;6349;50.904;6.136;2023-07-13T08:52:34;19.90;99.90
12568;DHT22;6349;50.904;6.136;2023-07-13T08:54:41;20.00;99.90
12568;DHT22;6349;50.904;6.136;2023-07-13T08:56:45;20.20;99.90
12568;DHT22;6349;50.904;6.136;2023-07-13T08:58:51;20.40;99.90
12568;DHT22;6349;50.904;6.136;2023-07-13T09:01:24;20.40;99.90
12568;DHT22;6349;50.904;6.136;2023-07-13T09:03:37;20.50;99.90
12568;DHT22;6349;50.904;6.136;2023-07-13T09:05:42;20.60;99.90
12568;DHT22;6349;50.904;6.136;2023-07-13T09:08:08;20.50;99.90
12568;DHT22;6349;50.904;6.136;2023-07-13T09:10:28;20.60;99.90
12568;DHT22;6349;50.904;6.136;2023-07-13T09:14:53;20.60;99.90
12568;DHT22;6349;50.904;6.136;2023-07-13T09:16:55;20.60;99.90
12568;DHT22;6349;50.904;6.136;2023-07-13T09:19:05;20.60;99.90
12568;DHT22;6349;50.904;6.136;2023-07-13T09:21:28;20.50;99.90
12568;DHT22;6349;50.904;6.136;2023-07-13T09:23:30;20.50;99.90
12568;DHT22;6349;50.904;6.136;2023-07-13T09:25:36;20.50;99.90
12568;DHT22;6349;50.904;6.136;2023-07-13T09:27:40;20.60;99.90
12568;DHT22;6349;50.904;6.136;2023-07-13T09:29:47;20.80;99.90
12568;DHT22;6349;50.904;6.136;2023-07-13T09:31:54;20.70;99.90
12568;DHT22;6349;50.904;6.136;2023-07-13T09:33:57;20.80;99.90
12568;DHT22;6349;50.904;6.136;2023-07-13T09:35:59;20.80;99.90
12568;DHT22;6349;50.904;6.136;2023-07-13T09:38:28;20.90;99.90
12568;DHT22;6349;50.904;6.136;2023-07-13T09:40:49;20.80;99.90
12568;DHT22;6349;50.904;6.136;2023-07-13T09:42:53;20.90;99.90
12568;DHT22;6349;50.904;6.136;2023-07-13T09:45:02;21.00;99.90
12568;DHT22;6349;50.904;6.136;2023-07-13T09:47:03;20.90;99.90
12568;DHT22;6349;50.904;6.136;2023-07-13T09:49:15;20.80;99.90
12568;DHT22;6349;50.904;6.136;2023-07-13T09:51:16;20.70;99.90
12568;DHT22;6349;50.904;6.136;2023-07-13T09:53:18;20.70;99.90
12568;DHT22;6349;50.904;6.136;2023-07-13T09:55:31;20.70;99.90
12568;DHT22;6349;50.904;6.136;2023-07-13T09:57:34;20.60;99.90
12568;DHT22;6349;50.904;6.136;2023-07-13T09:59:40;20.60;99.90
12568;DHT22;6349;50.904;6.136;2023-07-13T10:01:41;20.60;99.90
12568;DHT22;6349;50.904;6.136;2023-07-13T10:03:52;20.70;99.90
12568;DHT22;6349;50.904;6.136;2023-07-13T10:05:54;20.70;99.90
12568;DHT22;6349;50.904;6.136;2023-07-13T10:07:56;20.90;99.90
12568;DHT22;6349;50.904;6.136;2023-07-13T10:09:58;21.00;99.90
12568;DHT22;6349;50.904;6.136;2023-07-13T10:12:01;21.20;99.90
12568;DHT22;6349;50.904;6.136;2023-07-13T10:14:09;21.20;99.90
12568;DHT22;6349;50.904;6.136;2023-07-13T10:16:10;21.40;99.90
12568;DHT22;6349;50.904;6.136;2023-07-13T10:18:11;21.60;99.90
12568;DHT22;6349;50.904;6.136;2023-07-13T10:20:11;21.50;99.90
12568;DHT22;6349;50.904;6.136;2023-07-13T10:22:29;21.40;99.90
12568;DHT22;6349;50.904;6.136;2023-07-13T10:24:36;21.40;99.90
12568;DHT22;6349;50.904;6.136;2023-07-13T10:26:41;21.50;99.90
12568;DHT22;6349;50.904;6.136;2023-07-13T10:28:45;21.50;99.90
12568;DHT22;6349;50.904;6.136;2023-07-13T10:30:48;21.50;99.90
12568;DHT22;6349;50.904;6.136;2023-07-13T10:32:50;21.70;99.90
12568;DHT22;6349;50.904;6.136;2023-07-13T10:34:51;21.80;99.90
12568;DHT22;6349;50.904;6.136;2023-07-13T10:36:52;21.90;99.90
12568;DHT22;6349;50.904;6.136;2023-07-13T10:38:55;21.90;99.90
12568;DHT22;6349;50.904;6.136;2023-07-13T10:41:03;21.90;99.90
12568;DHT22;6349;50.904;6.136;2023-07-13T10:43:09;21.90;99.90
12568;DHT22;6349;50.904;6.136;2023-07-13T10:45:14;21.80;99.90
12568;DHT22;6349;50.904;6.136;2023-07-13T10:47:16;21.80;99.90
12568;DHT22;6349;50.904;6.136;2023-07-13T10:49:19;21.80;99.90
12568;DHT22;6349;50.904;6.136;2023-07-13T10:51:21;21.80;99.90
12568;DHT22;6349;50.904;6.136;2023-07-13T10:53:29;21.80;99.90
12568;DHT22;6349;50.904;6.136;2023-07-13T10:55:41;21.70;99.90
12568;DHT22;6349;50.904;6.136;2023-07-13T10:57:54;21.80;99.90
12568;DHT22;6349;50.904;6.136;2023-07-13T11:00:17;21.90;99.90
12568;DHT22;6349;50.904;6.136;2023-07-13T11:02:28;22.00;99.90
12568;DHT22;6349;50.904;6.136;2023-07-13T11:04:39;22.30;99.90
12568;DHT22;6349;50.904;6.136;2023-07-13T11:06:42;22.30;99.90
12568;DHT22;6349;50.904;6.136;2023-07-13T11:10:54;22.60;99.90
12568;DHT22;6349;50.904;6.136;2023-07-13T11:12:54;22.60;99.90
12568;DHT22;6349;50.904;6.136;2023-07-13T11:16:56;22.50;99.90
12568;DHT22;6349;50.904;6.136;2023-07-13T11:21:14;22.60;99.90
12568;DHT22;6349;50.904;6.136;2023-07-13T11:27:45;22.70;99.90
12568;DHT22;6349;50.904;6.136;2023-07-13T11:29:46;22.70;99.90
12568;DHT22;6349;50.904;6.136;2023-07-13T11:31:58;22.70;99.90
12568;DHT22;6349;50.904;6.136;2023-07-13T11:33:59;22.60;99.90
12568;DHT22;6349;50.904;6.136;2023-07-13T11:36:22;22.50;99.90
12568;DHT22;6349;50.904;6.136;2023-07-13T11:38:32;22.60;99.90
12568;DHT22;6349;50.904;6.136;2023-07-13T11:40:33;22.50;99.90
12568;DHT22;6349;50.904;6.136;2023-07-13T11:42:35;22.50;99.90
12568;DHT22;6349;50.904;6.136;2023-07-13T11:44:42;22.60;99.90
12568;DHT22;6349;50.904;6.136;2023-07-13T11:47:11;22.70;99.90
12568;DHT22;6349;50.904;6.136;2023-07-13T11:49:17;22.80;99.90
12568;DHT22;6349;50.904;6.136;2023-07-13T11:51:24;22.90;99.90
12568;DHT22;6349;50.904;6.136;2023-07-13T11:53:28;23.00;99.90
12568;DHT22;6349;50.904;6.136;2023-07-13T11:55:29;23.00;99.90
12568;DHT22;6349;50.904;6.136;2023-07-13T11:57:32;22.80;99.90
12568;DHT22;6349;50.904;6.136;2023-07-13T11:59:39;22.70;99.90
12568;DHT22;6349;50.904;6.136;2023-07-13T12:01:46;22.80;99.90
12568;DHT22;6349;50.904;6.136;2023-07-13T12:03:48;22.90;99.90
12568;DHT22;6349;50.904;6.136;2023-07-13T12:06:06;23.10;99.90
12568;DHT22;6349;50.904;6.136;2023-07-13T12:08:10;23.30;99.90
12568;DHT22;6349;50.904;6.136;2023-07-13T12:10:26;23.40;99.90
12568;DHT22;6349;50.904;6.136;2023-07-13T12:12:29;23.50;99.90
12568;DHT22;6349;50.904;6.136;2023-07-13T12:14:33;23.50;99.90
12568;DHT22;6349;50.904;6.136;2023-07-13T12:16:34;23.50;99.90
12568;DHT22;6349;50.904;6.136;2023-07-13T12:18:35;23.30;99.90
12568;DHT22;6349;50.904;6.136;2023-07-13T12:20:38;23.30;99.90
12568;DHT22;6349;50.904;6.136;2023-07-13T12:22:39;23.40;99.90
12568;DHT22;6349;50.904;6.136;2023-07-13T12:24:40;23.30;99.90
12568;DHT22;6349;50.904;6.136;2023-07-13T12:26:41;23.30;99.90
12568;DHT22;6349;50.904;6.136;2023-07-13T12:28:52;23.30;99.90
12568;DHT22;6349;50.904;6.136;2023-07-13T12:31:01;23.20;99.90
12568;DHT22;6349;50.904;6.136;2023-07-13T12:33:12;23.50;99.90
12568;DHT22;6349;50.904;6.136;2023-07-13T12:35:16;23.50;99.90
12568;DHT22;6349;50.904;6.136;2023-07-13T12:37:17;23.60;99.90
12568;DHT22;6349;50.904;6.136;2023-07-13T12:39:24;23.60;99.90
12568;DHT22;6349;50.904;6.136;2023-07-13T12:41:26;23.60;99.90
12568;DHT22;6349;50.904;6.136;2023-07-13T12:43:34;23.70;99.90
12568;DHT22;6349;50.904;6.136;2023-07-13T12:45:37;23.80;99.90
12568;DHT22;6349;50.904;6.136;2023-07-13T12:47:42;23.80;99.90
12568;DHT22;6349;50.904;6.136;2023-07-13T12:49:48;23.70;99.90
12568;DHT22;6349;50.904;6.136;2023-07-13T12:51:50;23.70;99.90
12568;DHT22;6349;50.904;6.136;2023-07-13T12:54:12;23.90;99.90
12568;DHT22;6349;50.904;6.136;2023-07-13T12:56:23;24.00;99.90
12568;DHT22;6349;50.904;6.136;2023-07-13T12:58:34;24.10;99.90
12568;DHT22;6349;50.904;6.136;2023-07-13T13:00:37;24.20;99.90
12568;DHT22;6349;50.904;6.136;2023-07-13T13:02:39;24.20;99.90
12568;DHT22;6349;50.904;6.136;2023-07-13T13:04:40;24.10;99.90
12568;DHT22;6349;50.904;6.136;2023-07-13T13:06:42;24.00;99.90
12568;DHT22;6349;50.904;6.136;2023-07-13T13:08:49;24.00;99.90
12568;DHT22;6349;50.904;6.136;2023-07-13T13:10:49;23.90;99.90
12568;DHT22;6349;50.904;6.136;2023-07-13T13:12:51;24.00;99.90
12568;DHT22;6349;50.904;6.136;2023-07-13T13:14:52;24.10;99.90
12568;DHT22;6349;50.904;6.136;2023-07-13T13:16:53;24.10;99.90
12568;DHT22;6349;50.904;6.136;2023-07-13T13:18:56;24.20;99.90
12568;DHT22;6349;50.904;6.136;2023-07-13T13:21:00;24.10;99.90
12568;DHT22;6349;50.904;6.136;2023-07-13T13:23:01;24.20;99.90
12568;DHT22;6349;50.904;6.136;2023-07-13T13:25:01;24.40;99.90
12568;DHT22;6349;50.904;6.136;2023-07-13T13:27:02;24.40;99.90